sensor_id;sensor_type;location;lat;lon;timestamp;P1;durP1;ratioP1;P2;durP2;ratioP2
47329;SDS011;33060;50.178;7.570;2023-04-16T00:01:01;74.33;;;19.47;;
47329;SDS011;33060;50.178;7.570;2023-04-16T00:03:28;73.27;;;19.67;;
47329;SDS011;33060;50.178;7.570;2023-04-16T00:05:55;107.43;;;21.70;;
47329;SDS011;33060;50.178;7.570;2023-04-16T00:08:22;64.87;;;18.60;;
47329;SDS011;33060;50.178;7.570;2023-04-16T00:10:52;82.90;;;19.33;;
47329;SDS011;33060;50.178;7.570;2023-04-16T00:13:18;61.97;;;19.10;;
47329;SDS011;33060;50.178;7.570;2023-04-16T00:15:45;136.90;;;21.63;;
47329;SDS011;33060;50.178;7.570;2023-04-16T00:18:11;105.77;;;19.20;;
47329;SDS011;33060;50.178;7.570;2023-04-16T00:20:38;116.30;;;21.13;;
47329;SDS011;33060;50.178;7.570;2023-04-16T00:23:05;151.50;;;23.00;;
47329;SDS011;33060;50.178;7.570;2023-04-16T00:25:31;92.80;;;20.77;;
47329;SDS011;33060;50.178;7.570;2023-04-16T00:27:58;167.50;;;23.60;;
47329;SDS011;33060;50.178;7.570;2023-04-16T00:30:24;75.07;;;18.70;;
47329;SDS011;33060;50.178;7.570;2023-04-16T00:32:51;292.97;;;27.60;;
47329;SDS011;33060;50.178;7.570;2023-04-16T00:35:17;218.70;;;26.40;;
47329;SDS011;33060;50.178;7.570;2023-04-16T00:37:44;158.50;;;20.70;;
47329;SDS011;33060;50.178;7.570;2023-04-16T00:40:10;276.07;;;25.57;;
47329;SDS011;33060;50.178;7.570;2023-04-16T00:42:37;238.20;;;21.73;;
47329;SDS011;33060;50.178;7.570;2023-04-16T00:45:04;247.60;;;26.53;;
47329;SDS011;33060;50.178;7.570;2023-04-16T00:47:30;118.73;;;20.47;;
47329;SDS011;33060;50.178;7.570;2023-04-16T00:49:57;373.77;;;33.43;;
47329;SDS011;33060;50.178;7.570;2023-04-16T00:52:24;109.60;;;20.40;;
47329;SDS011;33060;50.178;7.570;2023-04-16T00:54:51;378.70;;;34.20;;
47329;SDS011;33060;50.178;7.570;2023-04-16T00:57:17;298.30;;;27.00;;
47329;SDS011;33060;50.178;7.570;2023-04-16T00:59:46;319.87;;;29.07;;
47329;SDS011;33060;50.178;7.570;2023-04-16T01:02:13;205.57;;;25.20;;
47329;SDS011;33060;50.178;7.570;2023-04-16T01:04:39;419.67;;;32.03;;
47329;SDS011;33060;50.178;7.570;2023-04-16T01:07:06;438.53;;;35.30;;
47329;SDS011;33060;50.178;7.570;2023-04-16T01:09:33;259.43;;;23.87;;
47329;SDS011;33060;50.178;7.570;2023-04-16T01:12:01;378.77;;;31.70;;
47329;SDS011;33060;50.178;7.570;2023-04-16T01:14:28;252.83;;;25.53;;
47329;SDS011;33060;50.178;7.570;2023-04-16T01:16:56;259.93;;;25.93;;
47329;SDS011;33060;50.178;7.570;2023-04-16T01:19:23;304.00;;;28.80;;
47329;SDS011;33060;50.178;7.570;2023-04-16T01:21:50;346.33;;;29.97;;
47329;SDS011;33060;50.178;7.570;2023-04-16T01:24:16;176.63;;;24.40;;
47329;SDS011;33060;50.178;7.570;2023-04-16T01:26:43;183.20;;;25.77;;
47329;SDS011;33060;50.178;7.570;2023-04-16T01:29:09;340.07;;;30.87;;
47329;SDS011;33060;50.178;7.570;2023-04-16T01:31:36;221.30;;;27.13;;
47329;SDS011;33060;50.178;7.570;2023-04-16T01:34:08;145.40;;;26.53;;
47329;SDS011;33060;50.178;7.570;2023-04-16T01:36:35;134.93;;;21.47;;
47329;SDS011;33060;50.178;7.570;2023-04-16T01:39:01;201.53;;;22.50;;
47329;SDS011;33060;50.178;7.570;2023-04-16T01:41:29;230.73;;;25.87;;
47329;SDS011;33060;50.178;7.570;2023-04-16T01:43:56;179.77;;;23.70;;
47329;SDS011;33060;50.178;7.570;2023-04-16T01:46:25;284.83;;;29.40;;
47329;SDS011;33060;50.178;7.570;2023-04-16T01:48:52;222.23;;;25.93;;
47329;SDS011;33060;50.178;7.570;2023-04-16T01:51:20;152.50;;;24.07;;
47329;SDS011;33060;50.178;7.570;2023-04-16T01:53:46;193.20;;;23.77;;
47329;SDS011;33060;50.178;7.570;2023-04-16T01:56:13;183.17;;;23.80;;
47329;SDS011;33060;50.178;7.570;2023-04-16T01:58:39;88.00;;;16.77;;
47329;SDS011;33060;50.178;7.570;2023-04-16T02:01:08;171.40;;;24.63;;
47329;SDS011;33060;50.178;7.570;2023-04-16T02:03:35;145.63;;;23.23;;
47329;SDS011;33060;50.178;7.570;2023-04-16T02:06:02;175.70;;;24.50;;
47329;SDS011;33060;50.178;7.570;2023-04-16T02:08:29;162.63;;;25.73;;
47329;SDS011;33060;50.178;7.570;2023-04-16T02:10:56;188.87;;;27.47;;
47329;SDS011;33060;50.178;7.570;2023-04-16T02:13:23;185.87;;;27.37;;
47329;SDS011;33060;50.178;7.570;2023-04-16T02:15:51;241.73;;;26.67;;
47329;SDS011;33060;50.178;7.570;2023-04-16T02:18:53;223.97;;;28.43;;
47329;SDS011;33060;50.178;7.570;2023-04-16T02:21:22;321.57;;;33.00;;
47329;SDS011;33060;50.178;7.570;2023-04-16T02:23:48;317.03;;;31.40;;
47329;SDS011;33060;50.178;7.570;2023-04-16T02:26:21;369.47;;;31.13;;
47329;SDS011;33060;50.178;7.570;2023-04-16T02:28:48;383.73;;;28.93;;
47329;SDS011;33060;50.178;7.570;2023-04-16T02:31:23;389.67;;;35.27;;
47329;SDS011;33060;50.178;7.570;2023-04-16T02:33:50;349.57;;;30.93;;
47329;SDS011;33060;50.178;7.570;2023-04-16T02:36:16;475.13;;;35.07;;
47329;SDS011;33060;50.178;7.570;2023-04-16T02:38:43;300.80;;;21.77;;
47329;SDS011;33060;50.178;7.570;2023-04-16T02:41:09;227.53;;;24.97;;
47329;SDS011;33060;50.178;7.570;2023-04-16T02:43:36;198.73;;;23.87;;
47329;SDS011;33060;50.178;7.570;2023-04-16T02:46:03;245.83;;;25.87;;
47329;SDS011;33060;50.178;7.570;2023-04-16T02:48:29;364.47;;;32.13;;
47329;SDS011;33060;50.178;7.570;2023-04-16T02:50:56;225.73;;;21.60;;
47329;SDS011;33060;50.178;7.570;2023-04-16T02:53:22;168.70;;;21.10;;
47329;SDS011;33060;50.178;7.570;2023-04-16T02:55:49;372.07;;;30.87;;
47329;SDS011;33060;50.178;7.570;2023-04-16T02:58:18;207.27;;;20.67;;
47329;SDS011;33060;50.178;7.570;2023-04-16T03:00:44;278.27;;;25.97;;
47329;SDS011;33060;50.178;7.570;2023-04-16T03:03:11;368.63;;;29.73;;
47329;SDS011;33060;50.178;7.570;2023-04-16T03:05:38;193.20;;;20.57;;
47329;SDS011;33060;50.178;7.570;2023-04-16T03:08:05;190.50;;;22.63;;
47329;SDS011;33060;50.178;7.570;2023-04-16T03:10:33;247.57;;;22.93;;
47329;SDS011;33060;50.178;7.570;2023-04-16T03:13:00;290.97;;;24.87;;
47329;SDS011;33060;50.178;7.570;2023-04-16T03:15:27;236.70;;;23.73;;
47329;SDS011;33060;50.178;7.570;2023-04-16T03:17:53;362.83;;;27.53;;
47329;SDS011;33060;50.178;7.570;2023-04-16T03:20:20;198.63;;;23.10;;
47329;SDS011;33060;50.178;7.570;2023-04-16T03:22:46;373.27;;;30.07;;
47329;SDS011;33060;50.178;7.570;2023-04-16T03:25:13;252.00;;;21.73;;
47329;SDS011;33060;50.178;7.570;2023-04-16T03:27:40;240.03;;;22.50;;
47329;SDS011;33060;50.178;7.570;2023-04-16T03:30:07;281.70;;;25.87;;
47329;SDS011;33060;50.178;7.570;2023-04-16T03:32:34;230.87;;;22.17;;
47329;SDS011;33060;50.178;7.570;2023-04-16T03:35:05;378.67;;;28.90;;
47329;SDS011;33060;50.178;7.570;2023-04-16T03:37:32;220.93;;;23.70;;
47329;SDS011;33060;50.178;7.570;2023-04-16T03:39:59;251.43;;;25.00;;
47329;SDS011;33060;50.178;7.570;2023-04-16T03:42:26;200.77;;;20.77;;
47329;SDS011;33060;50.178;7.570;2023-04-16T03:44:52;189.47;;;20.87;;
47329;SDS011;33060;50.178;7.570;2023-04-16T03:47:20;161.50;;;21.23;;
47329;SDS011;33060;50.178;7.570;2023-04-16T03:49:48;196.33;;;21.27;;
47329;SDS011;33060;50.178;7.570;2023-04-16T03:52:16;185.27;;;20.03;;
47329;SDS011;33060;50.178;7.570;2023-04-16T03:54:42;147.30;;;18.13;;
47329;SDS011;33060;50.178;7.570;2023-04-16T03:57:19;299.87;;;25.33;;
47329;SDS011;33060;50.178;7.570;2023-04-16T03:59:46;141.10;;;18.37;;
47329;SDS011;33060;50.178;7.570;2023-04-16T04:02:15;294.97;;;26.27;;
47329;SDS011;33060;50.178;7.570;2023-04-16T04:04:42;196.27;;;20.03;;
47329;SDS011;33060;50.178;7.570;2023-04-16T04:07:09;175.13;;;20.73;;
47329;SDS011;33060;50.178;7.570;2023-04-16T04:09:35;247.77;;;24.77;;
47329;SDS011;33060;50.178;7.570;2023-04-16T04:12:02;199.50;;;21.47;;
47329;SDS011;33060;50.178;7.570;2023-04-16T04:14:29;207.57;;;22.10;;
47329;SDS011;33060;50.178;7.570;2023-04-16T04:16:56;279.50;;;23.90;;
47329;SDS011;33060;50.178;7.570;2023-04-16T04:19:22;359.60;;;29.13;;
47329;SDS011;33060;50.178;7.570;2023-04-16T04:21:49;108.00;;;17.13;;
47329;SDS011;33060;50.178;7.570;2023-04-16T04:24:16;240.63;;;23.43;;
47329;SDS011;33060;50.178;7.570;2023-04-16T04:26:43;309.87;;;25.47;;
47329;SDS011;33060;50.178;7.570;2023-04-16T04:29:11;331.23;;;26.67;;
47329;SDS011;33060;50.178;7.570;2023-04-16T04:31:38;142.70;;;18.63;;
47329;SDS011;33060;50.178;7.570;2023-04-16T04:34:06;130.83;;;13.77;;
47329;SDS011;33060;50.178;7.570;2023-04-16T04:36:32;168.97;;;18.03;;
47329;SDS011;33060;50.178;7.570;2023-04-16T04:38:59;137.10;;;20.03;;
47329;SDS011;33060;50.178;7.570;2023-04-16T04:41:26;139.80;;;19.43;;
47329;SDS011;33060;50.178;7.570;2023-04-16T04:43:53;221.00;;;22.50;;
47329;SDS011;33060;50.178;7.570;2023-04-16T04:46:19;318.27;;;28.37;;
47329;SDS011;33060;50.178;7.570;2023-04-16T04:48:46;261.87;;;23.73;;
47329;SDS011;33060;50.178;7.570;2023-04-16T04:51:14;299.07;;;26.87;;
47329;SDS011;33060;50.178;7.570;2023-04-16T04:53:43;256.70;;;23.43;;
47329;SDS011;33060;50.178;7.570;2023-04-16T04:56:10;218.50;;;19.90;;
47329;SDS011;33060;50.178;7.570;2023-04-16T04:58:39;103.57;;;18.17;;
47329;SDS011;33060;50.178;7.570;2023-04-16T05:01:06;250.50;;;23.67;;
47329;SDS011;33060;50.178;7.570;2023-04-16T05:03:32;309.73;;;27.70;;
47329;SDS011;33060;50.178;7.570;2023-04-16T05:05:59;309.17;;;27.37;;
47329;SDS011;33060;50.178;7.570;2023-04-16T05:08:26;393.73;;;29.83;;
47329;SDS011;33060;50.178;7.570;2023-04-16T05:10:52;286.90;;;22.47;;
47329;SDS011;33060;50.178;7.570;2023-04-16T05:13:19;434.07;;;30.80;;
47329;SDS011;33060;50.178;7.570;2023-04-16T05:15:45;224.87;;;20.77;;
47329;SDS011;33060;50.178;7.570;2023-04-16T05:18:12;160.27;;;20.17;;
47329;SDS011;33060;50.178;7.570;2023-04-16T05:20:38;277.27;;;24.90;;
47329;SDS011;33060;50.178;7.570;2023-04-16T05:23:05;203.60;;;21.13;;
47329;SDS011;33060;50.178;7.570;2023-04-16T05:25:31;205.83;;;21.20;;
47329;SDS011;33060;50.178;7.570;2023-04-16T05:27:58;235.20;;;23.37;;
47329;SDS011;33060;50.178;7.570;2023-04-16T05:30:24;96.80;;;16.17;;
47329;SDS011;33060;50.178;7.570;2023-04-16T05:32:50;123.60;;;16.07;;
47329;SDS011;33060;50.178;7.570;2023-04-16T05:35:17;95.40;;;17.43;;
47329;SDS011;33060;50.178;7.570;2023-04-16T05:37:44;140.20;;;19.40;;
47329;SDS011;33060;50.178;7.570;2023-04-16T05:40:11;66.40;;;14.20;;
47329;SDS011;33060;50.178;7.570;2023-04-16T05:42:38;118.20;;;16.90;;
47329;SDS011;33060;50.178;7.570;2023-04-16T05:45:05;70.20;;;14.43;;
47329;SDS011;33060;50.178;7.570;2023-04-16T05:47:31;104.87;;;18.00;;
47329;SDS011;33060;50.178;7.570;2023-04-16T05:49:58;126.87;;;16.77;;
47329;SDS011;33060;50.178;7.570;2023-04-16T05:52:24;125.27;;;17.13;;
47329;SDS011;33060;50.178;7.570;2023-04-16T05:54:51;101.07;;;15.97;;
47329;SDS011;33060;50.178;7.570;2023-04-16T05:57:17;71.37;;;15.40;;
47329;SDS011;33060;50.178;7.570;2023-04-16T05:59:44;177.27;;;19.33;;
47329;SDS011;33060;50.178;7.570;2023-04-16T06:02:10;171.27;;;20.47;;
47329;SDS011;33060;50.178;7.570;2023-04-16T06:04:37;112.20;;;18.37;;
47329;SDS011;33060;50.178;7.570;2023-04-16T06:07:04;219.97;;;23.70;;
47329;SDS011;33060;50.178;7.570;2023-04-16T06:09:30;109.17;;;18.53;;
47329;SDS011;33060;50.178;7.570;2023-04-16T06:11:57;117.47;;;20.17;;
47329;SDS011;33060;50.178;7.570;2023-04-16T06:14:23;184.50;;;23.47;;
47329;SDS011;33060;50.178;7.570;2023-04-16T06:16:50;139.40;;;21.40;;
47329;SDS011;33060;50.178;7.570;2023-04-16T06:19:16;186.03;;;26.27;;
47329;SDS011;33060;50.178;7.570;2023-04-16T06:21:43;235.27;;;25.40;;
47329;SDS011;33060;50.178;7.570;2023-04-16T06:24:09;330.87;;;36.17;;
47329;SDS011;33060;50.178;7.570;2023-04-16T06:26:36;101.30;;;20.00;;
47329;SDS011;33060;50.178;7.570;2023-04-16T06:29:03;148.03;;;21.83;;
47329;SDS011;33060;50.178;7.570;2023-04-16T06:31:29;96.90;;;19.67;;
47329;SDS011;33060;50.178;7.570;2023-04-16T06:33:56;195.30;;;23.47;;
47329;SDS011;33060;50.178;7.570;2023-04-16T06:36:23;100.83;;;19.00;;
47329;SDS011;33060;50.178;7.570;2023-04-16T06:38:49;159.50;;;25.57;;
47329;SDS011;33060;50.178;7.570;2023-04-16T06:41:15;146.17;;;24.07;;
47329;SDS011;33060;50.178;7.570;2023-04-16T06:43:42;136.83;;;23.73;;
47329;SDS011;33060;50.178;7.570;2023-04-16T06:46:09;202.47;;;26.30;;
47329;SDS011;33060;50.178;7.570;2023-04-16T06:48:35;85.93;;;21.73;;
47329;SDS011;33060;50.178;7.570;2023-04-16T06:51:02;96.73;;;20.57;;
47329;SDS011;33060;50.178;7.570;2023-04-16T06:53:28;115.73;;;24.63;;
47329;SDS011;33060;50.178;7.570;2023-04-16T06:55:55;185.40;;;26.80;;
47329;SDS011;33060;50.178;7.570;2023-04-16T06:58:21;181.67;;;25.53;;
47329;SDS011;33060;50.178;7.570;2023-04-16T07:00:48;156.27;;;22.33;;
47329;SDS011;33060;50.178;7.570;2023-04-16T07:03:14;157.67;;;24.70;;
47329;SDS011;33060;50.178;7.570;2023-04-16T07:05:41;160.23;;;27.37;;
47329;SDS011;33060;50.178;7.570;2023-04-16T07:08:08;101.30;;;24.90;;
47329;SDS011;33060;50.178;7.570;2023-04-16T07:10:34;110.57;;;22.83;;
47329;SDS011;33060;50.178;7.570;2023-04-16T07:13:01;230.20;;;26.13;;
47329;SDS011;33060;50.178;7.570;2023-04-16T07:15:27;115.43;;;17.70;;
47329;SDS011;33060;50.178;7.570;2023-04-16T07:17:54;156.13;;;23.87;;
47329;SDS011;33060;50.178;7.570;2023-04-16T07:20:21;315.70;;;29.43;;
47329;SDS011;33060;50.178;7.570;2023-04-16T07:22:47;329.57;;;30.27;;
47329;SDS011;33060;50.178;7.570;2023-04-16T07:25:14;258.97;;;27.90;;
47329;SDS011;33060;50.178;7.570;2023-04-16T07:27:41;333.50;;;33.93;;
47329;SDS011;33060;50.178;7.570;2023-04-16T07:30:07;303.13;;;31.50;;
47329;SDS011;33060;50.178;7.570;2023-04-16T07:32:34;208.00;;;23.77;;
47329;SDS011;33060;50.178;7.570;2023-04-16T07:35:01;240.20;;;26.37;;
47329;SDS011;33060;50.178;7.570;2023-04-16T07:37:29;85.60;;;21.13;;
47329;SDS011;33060;50.178;7.570;2023-04-16T07:39:56;105.80;;;21.63;;
47329;SDS011;33060;50.178;7.570;2023-04-16T07:42:23;90.37;;;21.03;;
47329;SDS011;33060;50.178;7.570;2023-04-16T07:44:49;41.70;;;18.43;;
47329;SDS011;33060;50.178;7.570;2023-04-16T07:47:16;71.20;;;18.97;;
47329;SDS011;33060;50.178;7.570;2023-04-16T07:49:42;45.63;;;18.83;;
47329;SDS011;33060;50.178;7.570;2023-04-16T07:52:09;52.13;;;19.80;;
47329;SDS011;33060;50.178;7.570;2023-04-16T07:54:36;53.70;;;18.40;;
47329;SDS011;33060;50.178;7.570;2023-04-16T07:57:02;75.83;;;18.57;;
47329;SDS011;33060;50.178;7.570;2023-04-16T07:59:29;39.80;;;17.93;;
47329;SDS011;33060;50.178;7.570;2023-04-16T08:01:55;34.60;;;17.90;;
47329;SDS011;33060;50.178;7.570;2023-04-16T08:04:22;41.63;;;16.93;;
47329;SDS011;33060;50.178;7.570;2023-04-16T08:06:51;36.27;;;16.60;;
47329;SDS011;33060;50.178;7.570;2023-04-16T08:09:18;50.83;;;20.83;;
47329;SDS011;33060;50.178;7.570;2023-04-16T08:11:45;41.00;;;18.23;;
47329;SDS011;33060;50.178;7.570;2023-04-16T08:14:17;39.77;;;17.60;;
47329;SDS011;33060;50.178;7.570;2023-04-16T08:16:44;32.37;;;17.13;;
47329;SDS011;33060;50.178;7.570;2023-04-16T08:19:10;26.43;;;14.97;;
47329;SDS011;33060;50.178;7.570;2023-04-16T08:21:37;43.97;;;24.63;;
47329;SDS011;33060;50.178;7.570;2023-04-16T08:24:03;26.10;;;15.47;;
47329;SDS011;33060;50.178;7.570;2023-04-16T08:26:30;26.33;;;15.77;;
47329;SDS011;33060;50.178;7.570;2023-04-16T08:28:57;29.90;;;15.30;;
47329;SDS011;33060;50.178;7.570;2023-04-16T08:31:23;23.57;;;12.87;;
47329;SDS011;33060;50.178;7.570;2023-04-16T08:33:50;26.57;;;14.97;;
47329;SDS011;33060;50.178;7.570;2023-04-16T08:36:16;22.73;;;13.17;;
47329;SDS011;33060;50.178;7.570;2023-04-16T08:38:43;29.33;;;14.73;;
47329;SDS011;33060;50.178;7.570;2023-04-16T08:41:11;30.50;;;16.10;;
47329;SDS011;33060;50.178;7.570;2023-04-16T08:43:38;25.60;;;15.40;;
47329;SDS011;33060;50.178;7.570;2023-04-16T08:46:07;25.77;;;15.60;;
47329;SDS011;33060;50.178;7.570;2023-04-16T08:48:34;27.00;;;14.13;;
47329;SDS011;33060;50.178;7.570;2023-04-16T08:51:01;31.93;;;17.30;;
47329;SDS011;33060;50.178;7.570;2023-04-16T08:53:51;31.40;;;15.20;;
47329;SDS011;33060;50.178;7.570;2023-04-16T08:56:14;27.13;;;16.20;;
47329;SDS011;33060;50.178;7.570;2023-04-16T08:58:45;32.20;;;16.50;;
47329;SDS011;33060;50.178;7.570;2023-04-16T09:01:13;29.60;;;16.47;;
47329;SDS011;33060;50.178;7.570;2023-04-16T09:03:39;34.03;;;16.87;;
47329;SDS011;33060;50.178;7.570;2023-04-16T09:06:06;51.23;;;15.50;;
47329;SDS011;33060;50.178;7.570;2023-04-16T09:08:35;39.87;;;16.13;;
47329;SDS011;33060;50.178;7.570;2023-04-16T09:11:01;37.27;;;15.00;;
47329;SDS011;33060;50.178;7.570;2023-04-16T09:13:29;37.03;;;15.77;;
47329;SDS011;33060;50.178;7.570;2023-04-16T09:15:56;41.83;;;16.50;;
47329;SDS011;33060;50.178;7.570;2023-04-16T09:18:23;42.67;;;17.10;;
47329;SDS011;33060;50.178;7.570;2023-04-16T09:20:50;47.93;;;17.90;;
47329;SDS011;33060;50.178;7.570;2023-04-16T09:23:17;76.53;;;18.53;;
47329;SDS011;33060;50.178;7.570;2023-04-16T09:25:43;89.93;;;26.57;;
47329;SDS011;33060;50.178;7.570;2023-04-16T09:28:10;52.87;;;19.17;;
47329;SDS011;33060;50.178;7.570;2023-04-16T09:30:36;61.97;;;18.20;;
47329;SDS011;33060;50.178;7.570;2023-04-16T09:33:19;103.77;;;20.53;;
47329;SDS011;33060;50.178;7.570;2023-04-16T09:35:49;73.83;;;17.80;;
47329;SDS011;33060;50.178;7.570;2023-04-16T09:38:16;61.03;;;15.13;;
47329;SDS011;33060;50.178;7.570;2023-04-16T09:40:42;82.13;;;19.23;;
47329;SDS011;33060;50.178;7.570;2023-04-16T09:43:16;124.10;;;20.93;;
47329;SDS011;33060;50.178;7.570;2023-04-16T09:45:49;65.43;;;16.27;;
47329;SDS011;33060;50.178;7.570;2023-04-16T09:48:31;43.53;;;21.40;;
47329;SDS011;33060;50.178;7.570;2023-04-16T09:50:59;42.10;;;21.23;;
47329;SDS011;33060;50.178;7.570;2023-04-16T09:53:27;48.17;;;23.33;;
47329;SDS011;33060;50.178;7.570;2023-04-16T09:58:23;49.27;;;23.57;;
47329;SDS011;33060;50.178;7.570;2023-04-16T10:03:29;100.87;;;24.57;;
47329;SDS011;33060;50.178;7.570;2023-04-16T10:06:02;110.83;;;24.83;;
47329;SDS011;33060;50.178;7.570;2023-04-16T10:08:32;166.10;;;25.37;;
47329;SDS011;33060;50.178;7.570;2023-04-16T10:10:58;183.27;;;26.67;;
47329;SDS011;33060;50.178;7.570;2023-04-16T10:13:25;295.60;;;32.23;;
47329;SDS011;33060;50.178;7.570;2023-04-16T10:15:56;139.73;;;23.13;;
47329;SDS011;33060;50.178;7.570;2023-04-16T10:18:23;314.63;;;32.07;;
47329;SDS011;33060;50.178;7.570;2023-04-16T10:20:49;150.97;;;25.43;;
47329;SDS011;33060;50.178;7.570;2023-04-16T10:23:16;282.73;;;27.30;;
47329;SDS011;33060;50.178;7.570;2023-04-16T10:25:44;172.47;;;27.80;;
47329;SDS011;33060;50.178;7.570;2023-04-16T10:28:11;123.13;;;24.10;;
47329;SDS011;33060;50.178;7.570;2023-04-16T10:30:39;71.90;;;23.87;;
47329;SDS011;33060;50.178;7.570;2023-04-16T10:33:07;53.17;;;23.00;;
47329;SDS011;33060;50.178;7.570;2023-04-16T10:35:38;41.63;;;24.97;;
47329;SDS011;33060;50.178;7.570;2023-04-16T10:38:20;40.07;;;24.70;;
47329;SDS011;33060;50.178;7.570;2023-04-16T10:40:48;39.97;;;24.70;;
47329;SDS011;33060;50.178;7.570;2023-04-16T10:43:17;39.60;;;25.27;;
47329;SDS011;33060;50.178;7.570;2023-04-16T10:45:46;40.57;;;24.83;;
47329;SDS011;33060;50.178;7.570;2023-04-16T10:48:13;40.00;;;25.60;;
47329;SDS011;33060;50.178;7.570;2023-04-16T10:50:40;33.63;;;21.43;;
47329;SDS011;33060;50.178;7.570;2023-04-16T10:53:16;39.17;;;24.97;;
47329;SDS011;33060;50.178;7.570;2023-04-16T10:55:56;34.70;;;23.73;;
47329;SDS011;33060;50.178;7.570;2023-04-16T10:58:29;36.67;;;23.90;;
47329;SDS011;33060;50.178;7.570;2023-04-16T11:00:59;37.67;;;24.40;;
47329;SDS011;33060;50.178;7.570;2023-04-16T11:03:30;39.83;;;24.87;;
47329;SDS011;33060;50.178;7.570;2023-04-16T11:06:12;38.03;;;24.03;;
47329;SDS011;33060;50.178;7.570;2023-04-16T11:08:39;37.77;;;23.60;;
47329;SDS011;33060;50.178;7.570;2023-04-16T11:11:20;37.23;;;25.43;;
47329;SDS011;33060;50.178;7.570;2023-04-16T11:13:46;37.80;;;25.33;;
47329;SDS011;33060;50.178;7.570;2023-04-16T11:16:13;37.17;;;24.57;;
47329;SDS011;33060;50.178;7.570;2023-04-16T11:18:40;39.23;;;25.33;;
47329;SDS011;33060;50.178;7.570;2023-04-16T11:21:16;34.43;;;24.80;;
47329;SDS011;33060;50.178;7.570;2023-04-16T11:26:23;34.03;;;24.30;;
47329;SDS011;33060;50.178;7.570;2023-04-16T11:28:50;36.03;;;25.27;;
47329;SDS011;33060;50.178;7.570;2023-04-16T11:31:17;35.53;;;25.33;;
47329;SDS011;33060;50.178;7.570;2023-04-16T11:33:43;37.50;;;25.40;;
47329;SDS011;33060;50.178;7.570;2023-04-16T11:36:10;37.80;;;26.13;;
47329;SDS011;33060;50.178;7.570;2023-04-16T11:38:37;38.30;;;26.63;;
47329;SDS011;33060;50.178;7.570;2023-04-16T11:41:06;35.57;;;25.27;;
47329;SDS011;33060;50.178;7.570;2023-04-16T11:43:32;35.03;;;25.60;;
47329;SDS011;33060;50.178;7.570;2023-04-16T11:46:02;38.63;;;27.00;;
47329;SDS011;33060;50.178;7.570;2023-04-16T11:48:46;35.37;;;24.33;;
47329;SDS011;33060;50.178;7.570;2023-04-16T11:51:15;36.83;;;25.10;;
47329;SDS011;33060;50.178;7.570;2023-04-16T11:53:46;32.40;;;24.37;;
47329;SDS011;33060;50.178;7.570;2023-04-16T11:56:12;35.97;;;25.27;;
47329;SDS011;33060;50.178;7.570;2023-04-16T11:58:39;38.90;;;25.47;;
47329;SDS011;33060;50.178;7.570;2023-04-16T12:01:08;34.20;;;25.00;;
47329;SDS011;33060;50.178;7.570;2023-04-16T12:03:39;38.53;;;27.33;;
47329;SDS011;33060;50.178;7.570;2023-04-16T12:06:09;38.27;;;27.10;;
47329;SDS011;33060;50.178;7.570;2023-04-16T12:08:35;38.30;;;27.40;;
47329;SDS011;33060;50.178;7.570;2023-04-16T12:11:02;36.20;;;25.63;;
47329;SDS011;33060;50.178;7.570;2023-04-16T12:13:28;34.43;;;25.67;;
47329;SDS011;33060;50.178;7.570;2023-04-16T12:15:55;33.23;;;24.43;;
47329;SDS011;33060;50.178;7.570;2023-04-16T12:18:23;29.53;;;23.63;;
47329;SDS011;33060;50.178;7.570;2023-04-16T12:20:51;33.63;;;25.13;;
47329;SDS011;33060;50.178;7.570;2023-04-16T12:23:25;36.50;;;26.40;;
47329;SDS011;33060;50.178;7.570;2023-04-16T12:25:52;32.57;;;25.23;;
47329;SDS011;33060;50.178;7.570;2023-04-16T12:28:28;33.63;;;25.80;;
47329;SDS011;33060;50.178;7.570;2023-04-16T12:30:55;32.80;;;25.93;;
47329;SDS011;33060;50.178;7.570;2023-04-16T12:33:22;35.87;;;26.20;;
47329;SDS011;33060;50.178;7.570;2023-04-16T12:35:48;34.97;;;25.63;;
47329;SDS011;33060;50.178;7.570;2023-04-16T12:38:15;34.60;;;23.77;;
47329;SDS011;33060;50.178;7.570;2023-04-16T12:40:42;32.53;;;24.87;;
47329;SDS011;33060;50.178;7.570;2023-04-16T12:43:09;33.23;;;25.57;;
47329;SDS011;33060;50.178;7.570;2023-04-16T12:45:36;30.50;;;24.47;;
47329;SDS011;33060;50.178;7.570;2023-04-16T12:48:03;33.90;;;25.27;;
47329;SDS011;33060;50.178;7.570;2023-04-16T12:50:30;33.53;;;25.00;;
47329;SDS011;33060;50.178;7.570;2023-04-16T12:52:56;38.37;;;27.13;;
47329;SDS011;33060;50.178;7.570;2023-04-16T12:55:23;31.93;;;25.10;;
47329;SDS011;33060;50.178;7.570;2023-04-16T12:57:50;34.47;;;26.50;;
47329;SDS011;33060;50.178;7.570;2023-04-16T13:00:20;32.00;;;25.53;;
47329;SDS011;33060;50.178;7.570;2023-04-16T13:02:46;35.13;;;26.60;;
47329;SDS011;33060;50.178;7.570;2023-04-16T13:05:13;35.37;;;24.87;;
47329;SDS011;33060;50.178;7.570;2023-04-16T13:07:42;33.63;;;27.47;;
47329;SDS011;33060;50.178;7.570;2023-04-16T13:10:08;33.53;;;26.00;;
47329;SDS011;33060;50.178;7.570;2023-04-16T13:12:35;33.80;;;26.97;;
47329;SDS011;33060;50.178;7.570;2023-04-16T13:15:02;33.10;;;25.23;;
47329;SDS011;33060;50.178;7.570;2023-04-16T13:17:28;30.90;;;25.03;;
47329;SDS011;33060;50.178;7.570;2023-04-16T13:19:55;32.50;;;25.73;;
47329;SDS011;33060;50.178;7.570;2023-04-16T13:22:21;34.83;;;25.23;;
47329;SDS011;33060;50.178;7.570;2023-04-16T13:24:48;32.10;;;25.87;;
47329;SDS011;33060;50.178;7.570;2023-04-16T13:27:15;33.13;;;27.00;;
47329;SDS011;33060;50.178;7.570;2023-04-16T13:29:42;35.80;;;28.23;;
47329;SDS011;33060;50.178;7.570;2023-04-16T13:32:08;32.20;;;25.87;;
47329;SDS011;33060;50.178;7.570;2023-04-16T13:34:35;32.40;;;26.37;;
47329;SDS011;33060;50.178;7.570;2023-04-16T13:37:01;31.53;;;25.83;;
47329;SDS011;33060;50.178;7.570;2023-04-16T13:39:28;34.03;;;25.33;;
47329;SDS011;33060;50.178;7.570;2023-04-16T13:41:54;35.07;;;25.27;;
47329;SDS011;33060;50.178;7.570;2023-04-16T13:44:21;30.40;;;24.17;;
47329;SDS011;33060;50.178;7.570;2023-04-16T13:46:47;29.90;;;24.80;;
47329;SDS011;33060;50.178;7.570;2023-04-16T13:49:15;28.43;;;23.73;;
47329;SDS011;33060;50.178;7.570;2023-04-16T13:51:42;29.70;;;23.03;;
47329;SDS011;33060;50.178;7.570;2023-04-16T13:54:09;27.93;;;23.93;;
47329;SDS011;33060;50.178;7.570;2023-04-16T13:56:35;31.77;;;25.03;;
47329;SDS011;33060;50.178;7.570;2023-04-16T13:59:02;32.20;;;26.20;;
47329;SDS011;33060;50.178;7.570;2023-04-16T14:01:28;32.50;;;28.63;;
47329;SDS011;33060;50.178;7.570;2023-04-16T14:03:55;27.67;;;23.77;;
47329;SDS011;33060;50.178;7.570;2023-04-16T14:06:21;32.13;;;26.03;;
47329;SDS011;33060;50.178;7.570;2023-04-16T14:08:48;30.97;;;25.73;;
47329;SDS011;33060;50.178;7.570;2023-04-16T14:11:14;34.00;;;26.13;;
47329;SDS011;33060;50.178;7.570;2023-04-16T14:13:41;35.33;;;27.33;;
47329;SDS011;33060;50.178;7.570;2023-04-16T14:16:07;28.60;;;24.47;;
47329;SDS011;33060;50.178;7.570;2023-04-16T14:18:34;31.77;;;26.53;;
47329;SDS011;33060;50.178;7.570;2023-04-16T14:21:01;32.30;;;26.33;;
47329;SDS011;33060;50.178;7.570;2023-04-16T14:23:27;26.27;;;23.48;;
47329;SDS011;33060;50.178;7.570;2023-04-16T14:25:54;30.00;;;25.00;;